Time;durP1;ratioP1;P1;durP2;ratioP2;P2;SDS_P1;SDS_P2;PMS_P1;PMS_P2;Temp;Humidity;BMP_temperature;BMP_pressure;BME280_temperature;BME280_humidity;BME280_pressure;Samples;Min_cycle;Max_cycle;Signal;HPM_P1;HPM_P2
2022/11/04 00:02:02;;;;;;;7.90;2.10;;;;;;;10.34;90.22;99786.28;5033119;28;20049;-62
2022/11/04 00:04:30;;;;;;;5.40;1.90;;;;;;;10.26;89.47;99788.97;5031100;28;20050;-62
2022/11/04 00:06:57;;;;;;;5.43;2.10;;;;;;;10.23;90.55;99788.50;5032382;28;20033;-63
2022/11/04 00:09:26;;;;;;;5.95;2.10;;;;;;;10.29;89.14;99782.50;5031580;28;20045;-62
2022/11/04 00:12:25;;;;;;;6.57;2.15;;;;;;;10.18;90.16;99789.00;5032848;28;20037;-63
2022/11/04 00:14:41;;;;;;;5.20;1.90;;;;;;;10.24;90.21;99788.34;5031614;28;20502;-63
2022/11/04 00:17:26;;;;;;;6.68;1.88;;;;;;;10.34;89.37;99794.25;5032733;28;20048;-63
2022/11/04 00:28:51;;;;;;;8.05;2.30;;;;;;;10.19;90.54;99823.31;5032378;28;20125;-62
2022/11/04 00:33:54;;;;;;;6.95;1.80;;;;;;;10.10;90.96;99829.63;5032479;28;20048;-62
2022/11/04 00:36:22;;;;;;;7.82;2.00;;;;;;;10.11;90.43;99833.94;5031239;28;20103;-62
2022/11/04 00:38:49;;;;;;;6.13;2.00;;;;;;;10.07;90.90;99823.84;5031471;28;20096;-62
2022/11/04 00:41:32;;;;;;;7.05;2.05;;;;;;;10.14;90.75;99830.13;4908489;28;20065;-62
2022/11/04 00:44:01;;;;;;;6.88;2.50;;;;;;;10.10;91.10;99832.28;5032983;28;20041;-62
2022/11/04 00:46:29;;;;;;;10.27;2.55;;;;;;;10.11;91.84;99828.63;5032482;28;20076;-62
2022/11/04 00:48:57;;;;;;;12.18;2.35;;;;;;;10.16;91.66;99830.78;5024436;28;20042;-62
2022/11/04 00:51:24;;;;;;;7.45;2.42;;;;;;;10.12;92.05;99848.03;5032185;28;20045;-62
2022/11/04 00:53:52;;;;;;;7.90;2.50;;;;;;;10.16;94.01;99833.41;5032615;28;20080;-62
2022/11/04 00:56:18;;;;;;;12.20;3.20;;;;;;;10.12;95.17;99842.72;5032550;28;20049;-62
2022/11/04 00:58:45;;;;;;;7.80;2.97;;;;;;;10.11;95.95;99849.81;5016154;28;20057;-62
2022/11/04 01:01:17;;;;;;;9.40;3.42;;;;;;;10.07;96.62;99856.47;5032379;28;20120;-62
2022/11/04 01:03:46;;;;;;;8.90;3.05;;;;;;;9.94;98.02;99849.06;5030409;28;20104;-63
2022/11/04 01:06:13;;;;;;;11.55;3.30;;;;;;;9.97;98.22;99848.75;5030602;28;20449;-62
2022/11/04 01:08:40;;;;;;;15.27;3.38;;;;;;;10.03;98.12;99849.88;5030594;28;20053;-62
2022/11/04 01:11:08;;;;;;;8.75;3.65;;;;;;;10.02;98.08;99858.00;5031074;28;20414;-62
2022/11/04 01:13:35;;;;;;;8.15;3.45;;;;;;;10.03;98.23;99865.78;5031932;28;20396;-62
2022/11/04 01:16:05;;;;;;;9.35;3.80;;;;;;;9.92;97.90;99866.16;5032131;28;20092;-62
2022/11/04 01:18:32;;;;;;;13.77;3.72;;;;;;;9.87;97.99;99882.53;5030427;28;20451;-62
2022/11/04 01:21:01;;;;;;;7.38;3.17;;;;;;;9.99;97.67;99893.63;5031859;28;20044;-62
2022/11/04 01:23:28;;;;;;;7.35;3.20;;;;;;;9.99;98.08;99891.78;5030990;28;20534;-62
2022/11/04 01:25:55;;;;;;;14.38;3.40;;;;;;;10.01;97.67;99883.66;5032003;28;20461;-62
2022/11/04 01:28:21;;;;;;;11.27;3.20;;;;;;;10.08;97.14;99897.06;5031940;28;20060;-61
2022/11/04 01:30:48;;;;;;;10.68;3.50;;;;;;;10.08;96.56;99894.44;5031854;28;20403;-61
2022/11/04 01:33:15;;;;;;;12.73;3.20;;;;;;;9.97;95.56;99895.63;5030514;28;20033;-61
2022/11/04 01:35:42;;;;;;;8.80;3.25;;;;;;;9.94;96.70;99904.72;5031946;28;20561;-62
2022/11/04 01:38:08;;;;;;;14.93;3.50;;;;;;;9.92;95.85;99892.66;5035865;28;20095;-61
2022/11/04 01:40:37;;;;;;;7.97;3.38;;;;;;;9.92;95.91;99888.16;4912418;28;20049;-62
2022/11/04 01:43:14;;;;;;;12.30;3.55;;;;;;;9.94;95.16;99888.00;5034316;28;20056;-62
2022/11/04 01:45:45;;;;;;;12.73;3.28;;;;;;;9.86;95.06;99898.59;5050949;28;20053;-62
2022/11/04 01:48:19;;;;;;;11.60;3.20;;;;;;;9.92;94.90;99896.13;5029277;28;20042;-61
2022/11/04 01:50:49;;;;;;;11.38;3.33;;;;;;;9.86;95.05;99904.75;5016677;28;20082;-62
2022/11/04 01:53:22;;;;;;;9.30;3.20;;;;;;;9.84;94.51;99900.59;5035414;28;20076;-61
2022/11/04 01:55:54;;;;;;;10.88;3.15;;;;;;;9.87;95.13;99903.75;5034964;28;20543;-62
2022/11/04 01:58:24;;;;;;;13.05;3.20;;;;;;;9.79;94.29;99907.25;5034350;28;20050;-62
2022/11/04 02:00:51;;;;;;;11.43;3.33;;;;;;;9.66;94.86;99906.94;5035131;28;20103;-62
2022/11/04 02:03:24;;;;;;;10.90;3.20;;;;;;;9.72;95.43;99918.69;5034183;28;20046;-61
2022/11/04 02:05:53;;;;;;;11.45;2.83;;;;;;;9.70;94.32;99920.69;5033142;28;20049;-62
2022/11/04 02:08:21;;;;;;;13.85;3.17;;;;;;;9.66;94.68;99925.50;5035085;28;20056;-62
2022/11/04 02:10:53;;;;;;;10.07;3.05;;;;;;;9.61;94.99;99930.47;5034975;28;20042;-61
2022/11/04 02:13:20;;;;;;;12.68;2.95;;;;;;;9.68;94.32;99938.53;5033670;28;20399;-62
2022/11/04 02:22:14;;;;;;;11.93;3.38;;;;;;;9.51;94.86;99922.66;5115465;27;20354;-61
2022/11/04 02:25:10;;;;;;;15.13;3.30;;;;;;;9.52;94.45;99928.81;5106120;28;20074;-61
2022/11/04 02:27:50;;;;;;;12.30;3.22;;;;;;;9.43;95.63;99920.03;5105707;28;20054;-62
2022/11/04 02:30:18;;;;;;;10.75;3.15;;;;;;;9.50;94.08;99912.28;5080533;28;20067;-61
2022/11/04 02:33:02;;;;;;;12.55;2.90;;;;;;;9.37;94.57;99918.06;5059139;28;20467;-62
2022/11/04 02:35:53;;;;;;;11.95;3.08;;;;;;;9.27;95.07;99915.56;5110008;28;20051;-62
2022/11/04 02:38:41;;;;;;;19.33;3.33;;;;;;;9.30;95.44;99919.72;5109022;28;20401;-62
2022/11/04 02:41:38;;;;;;;10.80;3.45;;;;;;;9.28;95.24;99916.41;4944491;28;20044;-62
2022/11/04 02:44:30;;;;;;;14.10;3.13;;;;;;;9.23;94.68;99912.44;5099193;28;20043;-62
2022/11/04 02:47:03;;;;;;;12.85;2.95;;;;;;;9.23;94.93;99915.06;5110261;28;20036;-62
2022/11/04 02:49:43;;;;;;;12.00;2.80;;;;;;;9.24;94.68;99908.00;5092699;28;20043;-62
2022/11/04 02:52:15;;;;;;;8.85;2.75;;;;;;;9.15;95.20;99917.75;5108826;28;20048;-62
2022/11/04 02:54:52;;;;;;;8.93;3.03;;;;;;;9.07;94.97;99909.78;5109913;28;20481;-62
2022/11/04 02:57:24;;;;;;;14.80;4.07;;;;;;;9.07;95.31;99908.97;5109913;28;20047;-61
2022/11/04 03:00:00;;;;;;;13.13;3.00;;;;;;;9.10;95.08;99909.47;5109959;28;20043;-61
2022/11/04 03:02:32;;;;;;;15.40;3.40;;;;;;;9.02;95.25;99907.66;5109983;28;20051;-61
2022/11/04 03:05:02;;;;;;;9.38;3.20;;;;;;;9.05;95.56;99909.13;5108029;28;20089;-61
2022/11/04 03:07:34;;;;;;;14.98;3.45;;;;;;;9.07;95.68;99920.38;5094628;28;20115;-61
2022/11/04 03:10:07;;;;;;;21.95;3.92;;;;;;;9.10;95.60;99914.75;5087511;28;20505;-62
2022/11/04 03:12:41;;;;;;;10.45;3.25;;;;;;;9.08;95.65;99919.38;5085576;28;20524;-61
2022/11/04 03:15:16;;;;;;;17.05;3.90;;;;;;;9.06;95.28;99910.78;5082374;28;20036;-61
2022/11/04 03:17:52;;;;;;;11.18;3.40;;;;;;;9.12;95.38;99910.13;5108750;28;20074;-62
2022/11/04 03:20:26;;;;;;;14.77;3.72;;;;;;;9.12;95.62;99910.13;5108703;28;20044;-63
2022/11/04 03:22:58;;;;;;;14.93;4.00;;;;;;;9.09;94.73;99905.16;5091581;28;20461;-62
2022/11/04 03:25:31;;;;;;;12.88;3.22;;;;;;;9.08;94.92;99906.16;5109318;28;20481;-63
2022/11/04 03:30:45;;;;;;;14.18;3.60;;;;;;;9.00;95.41;99898.19;5110512;27;20379;-62
2022/11/04 03:36:15;;;;;;;13.25;3.08;;;;;;;8.80;95.03;99900.31;5086120;28;20360;-62
2022/11/04 03:38:42;;;;;;;12.45;3.17;;;;;;;8.75;95.43;99906.13;5035718;28;20402;-61
2022/11/04 03:41:17;;;;;;;12.02;3.22;;;;;;;8.77;95.22;99912.06;4946105;28;20390;-62
2022/11/04 03:43:43;;;;;;;15.00;3.50;;;;;;;8.81;95.44;99918.69;5074597;28;20049;-63
2022/11/04 03:46:11;;;;;;;10.43;3.15;;;;;;;8.81;95.23;99916.03;5069802;28;20071;-62
2022/11/04 03:48:38;;;;;;;15.10;2.90;;;;;;;8.86;96.20;99920.84;5072804;28;20037;-61
2022/11/04 03:51:08;;;;;;;12.23;2.90;;;;;;;8.81;95.37;99925.78;5082389;28;20044;-61
2022/11/04 03:53:35;;;;;;;26.80;3.30;;;;;;;8.86;95.33;99920.84;5069753;28;20502;-62
2022/11/04 03:56:26;;;;;;;11.55;2.78;;;;;;;8.99;94.92;99929.13;5069357;28;20082;-61
2022/11/04 04:02:08;;;;;;;14.05;2.70;;;;;;;9.03;94.68;99929.63;5117018;27;20182;-62
2022/11/04 04:04:39;;;;;;;14.15;2.65;;;;;;;9.03;94.40;99927.81;5091520;28;20044;-63
2022/11/04 04:07:13;;;;;;;20.23;3.58;;;;;;;9.03;94.47;99925.16;5110052;28;20051;-62
2022/11/04 04:09:52;;;;;;;16.45;2.90;;;;;;;9.00;93.94;99916.72;5110180;28;20496;-62
2022/11/04 04:12:29;;;;;;;8.50;2.58;;;;;;;9.07;94.11;99920.38;5109951;28;20044;-62
2022/11/04 04:15:05;;;;;;;20.02;2.97;;;;;;;8.96;93.55;99913.56;5110782;28;20051;-62
2022/11/04 04:17:36;;;;;;;16.48;3.63;;;;;;;9.02;93.45;99926.16;5109875;28;20409;-62
2022/11/04 04:20:16;;;;;;;14.75;2.92;;;;;;;9.02;93.47;99925.31;5109798;28;20044;-62
2022/11/04 04:22:48;;;;;;;22.27;2.70;;;;;;;9.09;93.42;99928.16;5109817;28;20047;-62
2022/11/04 04:28:04;;;;;;;21.92;4.18;;;;;;;9.09;94.28;99930.78;5092105;28;20054;-62
2022/11/04 04:30:32;;;;;;;19.05;4.07;;;;;;;9.12;94.59;99936.59;5110216;28;20043;-62
2022/11/04 04:33:04;;;;;;;18.17;4.82;;;;;;;9.21;94.21;99938.25;5091765;28;20501;-62
2022/11/04 04:35:41;;;;;;;17.88;4.30;;;;;;;9.29;94.29;99933.94;5109608;28;20520;-62
2022/11/04 04:47:08;;;;;;;18.77;3.60;;;;;;;9.13;90.97;99938.25;5109507;28;20039;-62
2022/11/04 04:49:35;;;;;;;13.98;3.20;;;;;;;9.08;90.66;99927.31;5101191;28;20040;-63
2022/11/04 04:52:06;;;;;;;13.63;3.00;;;;;;;9.06;90.60;99931.97;5109546;28;20036;-63
2022/11/04 04:54:32;;;;;;;17.67;2.90;;;;;;;9.00;90.56;99932.59;5091158;28;20048;-62
2022/11/04 04:56:59;;;;;;;22.02;3.30;;;;;;;9.00;90.35;99943.19;5109430;28;20097;-62
2022/11/04 04:59:26;;;;;;;15.75;2.92;;;;;;;9.00;90.23;99940.53;5109143;28;20062;-62
2022/11/04 05:01:52;;;;;;;14.80;2.38;;;;;;;9.01;90.22;99943.00;5107692;28;20117;-62
2022/11/04 05:04:19;;;;;;;19.83;2.63;;;;;;;8.99;90.06;99937.06;5108460;28;20039;-62
2022/11/04 05:06:46;;;;;;;16.38;2.65;;;;;;;8.95;89.90;99937.53;5107980;28;20432;-62
2022/11/04 05:09:12;;;;;;;16.58;2.80;;;;;;;9.01;89.75;99935.06;5109133;28;20040;-62
2022/11/04 05:11:39;;;;;;;11.40;2.38;;;;;;;8.90;90.09;99942.50;5070092;28;20101;-62
2022/11/04 05:14:06;;;;;;;12.52;2.47;;;;;;;8.91;90.67;99929.09;5093906;28;20428;-62
2022/11/04 05:16:33;;;;;;;14.32;2.80;;;;;;;8.88;90.94;99925.94;5094394;28;20492;-62
2022/11/04 05:19:02;;;;;;;13.25;2.40;;;;;;;8.81;90.86;99937.19;5095393;28;20040;-62
2022/11/04 05:21:29;;;;;;;23.75;2.90;;;;;;;8.87;90.74;99943.66;5093630;28;20394;-62
2022/11/04 05:23:56;;;;;;;14.15;2.60;;;;;;;8.89;90.38;99933.72;5095455;28;20043;-62
2022/11/04 05:26:22;;;;;;;22.02;2.88;;;;;;;8.83;91.28;99939.69;5077413;28;20055;-62
2022/11/04 05:28:49;;;;;;;9.65;2.33;;;;;;;8.91;89.95;99946.81;5095653;28;20044;-62
2022/11/04 05:31:16;;;;;;;14.88;2.83;;;;;;;8.86;91.09;99946.44;5094791;28;20101;-61
2022/11/04 05:33:43;;;;;;;14.50;2.70;;;;;;;8.84;91.14;99947.47;5094082;28;20051;-61
2022/11/04 05:36:12;;;;;;;14.25;2.90;;;;;;;8.81;91.04;99946.97;5095259;28;20402;-61
2022/11/04 05:38:39;;;;;;;15.95;2.90;;;;;;;8.78;91.05;99957.84;5095008;28;20054;-62
2022/11/04 05:41:08;;;;;;;17.65;2.60;;;;;;;8.76;91.47;99951.91;5057909;28;20032;-62
2022/11/04 05:43:35;;;;;;;11.75;2.70;;;;;;;8.74;90.97;99952.06;5094404;28;20059;-62
2022/11/04 05:46:01;;;;;;;19.17;3.38;;;;;;;8.68;91.50;99959.78;5093521;28;20097;-62
2022/11/04 05:48:29;;;;;;;13.32;2.90;;;;;;;8.67;91.89;99960.78;5086354;28;20064;-62
2022/11/04 05:50:55;;;;;;;16.88;2.90;;;;;;;8.67;91.97;99955.50;5094679;28;20032;-62
2022/11/04 05:53:22;;;;;;;14.40;2.97;;;;;;;8.61;92.02;99951.69;5073534;28;20052;-62
2022/11/04 05:55:48;;;;;;;14.55;2.58;;;;;;;8.62;91.96;99953.34;5085759;28;20051;-62
2022/11/04 05:58:15;;;;;;;19.30;2.97;;;;;;;8.55;92.59;99955.81;5093606;28;20064;-62
2022/11/04 06:00:42;;;;;;;17.83;3.28;;;;;;;8.55;92.54;99955.81;5083937;28;20040;-62
2022/11/04 06:03:08;;;;;;;10.48;3.03;;;;;;;8.51;92.59;99956.28;5074431;28;20076;-65
2022/11/04 06:05:36;;;;;;;21.05;3.92;;;;;;;8.47;92.00;99962.88;5055785;28;20048;-62
2022/11/04 06:08:02;;;;;;;18.77;3.30;;;;;;;8.34;91.72;99974.69;5074179;28;20146;-61
2022/11/04 06:10:29;;;;;;;12.70;3.25;;;;;;;8.29;92.20;99970.84;5074007;28;20036;-61
2022/11/04 06:12:56;;;;;;;14.38;3.05;;;;;;;8.29;92.32;99974.31;5073962;28;20040;-62
2022/11/04 06:15:23;;;;;;;14.57;2.95;;;;;;;8.26;91.72;99978.13;5074082;28;20040;-61
2022/11/04 06:17:49;;;;;;;19.60;3.70;;;;;;;8.26;92.45;99986.03;5073786;28;20087;-62
2022/11/04 06:20:16;;;;;;;16.73;3.88;;;;;;;8.29;92.97;99990.16;5073405;28;20102;-61
2022/11/04 06:22:43;;;;;;;13.18;3.45;;;;;;;8.27;92.84;99995.59;5073400;28;20375;-62
2022/11/04 06:25:10;;;;;;;13.77;3.08;;;;;;;8.39;92.49;99992.72;5055495;28;20113;-61
2022/11/04 06:27:37;;;;;;;13.15;3.22;;;;;;;8.29;92.77;100003.38;5073881;28;20068;-62
2022/11/04 06:30:04;;;;;;;16.55;2.90;;;;;;;8.23;93.43;100007.47;5055939;28;20090;-62
2022/11/04 06:32:31;;;;;;;12.95;2.80;;;;;;;8.29;93.32;100013.97;5055999;28;20102;-62
2022/11/04 06:34:58;;;;;;;10.77;3.03;;;;;;;8.41;93.04;100018.00;5073351;28;20045;-62
2022/11/04 06:37:25;;;;;;;17.35;3.50;;;;;;;8.55;93.53;100026.34;5055804;28;20044;-62
2022/11/04 06:39:51;;;;;;;12.38;3.17;;;;;;;8.64;93.17;100025.38;4926898;28;20056;-62
2022/11/04 06:42:18;;;;;;;15.82;3.35;;;;;;;8.73;92.62;100027.09;5052100;28;20116;-61
2022/11/04 06:44:45;;;;;;;14.32;3.53;;;;;;;8.79;92.64;100020.34;5056642;28;20435;-62
2022/11/04 06:47:11;;;;;;;14.20;3.60;;;;;;;8.79;91.86;100020.34;5073027;28;20049;-62
2022/11/04 06:49:38;;;;;;;16.98;3.72;;;;;;;8.91;91.52;100021.69;5064650;28;20066;-63
2022/11/04 06:52:05;;;;;;;20.58;3.70;;;;;;;9.07;91.90;100036.78;5054825;28;20040;-62
2022/11/04 06:54:32;;;;;;;14.65;2.97;;;;;;;9.09;91.20;100033.97;5054821;28;20041;-62
2022/11/04 06:56:59;;;;;;;11.48;3.45;;;;;;;9.17;91.46;100026.91;5072833;28;20045;-62
2022/11/04 06:59:25;;;;;;;13.18;3.90;;;;;;;9.07;90.82;100028.84;5055224;28;20044;-63
2022/11/04 07:01:52;;;;;;;17.75;3.72;;;;;;;9.12;91.16;100031.84;5090892;28;20044;-62
2022/11/04 07:04:18;;;;;;;14.20;3.40;;;;;;;9.08;91.26;100035.81;5091348;28;20039;-63
2022/11/04 07:06:45;;;;;;;15.68;3.50;;;;;;;9.17;91.13;100034.84;5090657;28;20044;-63
2022/11/04 07:09:14;;;;;;;16.38;4.60;;;;;;;9.29;90.61;100037.97;5085786;28;20039;-63
2022/11/04 07:11:42;;;;;;;15.70;4.47;;;;;;;9.18;91.17;100043.59;5092850;28;20044;-63
2022/11/04 07:14:10;;;;;;;17.27;4.78;;;;;;;9.14;91.37;100043.09;5092501;28;20055;-63
2022/11/04 07:16:37;;;;;;;24.42;4.10;;;;;;;9.30;90.57;100044.13;5092744;28;20040;-62
2022/11/04 07:19:04;;;;;;;13.35;4.22;;;;;;;9.25;90.16;100043.78;5091847;28;20097;-62
2022/11/04 07:21:31;;;;;;;16.73;4.05;;;;;;;9.33;90.02;100044.63;5091256;28;20074;-62
2022/11/04 07:24:00;;;;;;;18.13;4.00;;;;;;;9.36;90.44;100046.09;5093424;28;20426;-62
2022/11/04 07:26:26;;;;;;;16.00;3.80;;;;;;;9.33;89.93;100057.00;5092932;28;20050;-62
2022/11/04 07:28:53;;;;;;;13.38;4.10;;;;;;;9.40;89.56;100055.38;5093054;28;20101;-62
2022/11/04 07:31:21;;;;;;;14.95;4.28;;;;;;;9.47;89.40;100063.50;5074951;28;20071;-63
2022/11/04 07:33:50;;;;;;;15.65;4.57;;;;;;;9.52;89.21;100069.13;5092976;28;20067;-62
2022/11/04 07:36:18;;;;;;;15.43;3.80;;;;;;;9.55;89.54;100069.66;5090955;28;20044;-62
2022/11/04 07:38:45;;;;;;;14.60;4.38;;;;;;;9.46;88.62;100072.41;5083156;28;20040;-62
2022/11/04 07:41:13;;;;;;;19.77;4.35;;;;;;;9.56;89.69;100076.56;4932633;28;20421;-63
2022/11/04 07:43:40;;;;;;;13.32;4.05;;;;;;;9.59;88.96;100078.91;5083306;28;20040;-62
2022/11/04 07:46:10;;;;;;;12.82;3.83;;;;;;;9.60;88.62;100080.56;5091625;28;20139;-63
2022/11/04 07:48:37;;;;;;;16.77;4.50;;;;;;;9.65;88.75;100087.19;5066896;28;20044;-64
2022/11/04 07:51:06;;;;;;;17.42;4.10;;;;;;;9.56;88.50;100100.41;5074615;28;20445;-63
2022/11/04 07:53:33;;;;;;;20.50;4.90;;;;;;;9.67;88.17;100109.84;5091149;28;20046;-63
2022/11/04 07:56:06;;;;;;;15.77;4.18;;;;;;;9.65;88.42;100113.69;5093030;28;20074;-63
2022/11/04 07:58:33;;;;;;;19.27;4.28;;;;;;;9.72;88.51;100118.16;5092784;28;20455;-63
2022/11/04 08:01:02;;;;;;;21.98;4.50;;;;;;;9.69;88.91;100125.59;5078453;28;20121;-63
2022/11/04 08:03:29;;;;;;;17.75;4.40;;;;;;;9.41;89.20;100123.22;5069514;28;20059;-63
2022/11/04 08:05:58;;;;;;;13.32;4.47;;;;;;;9.36;89.96;100123.69;5071561;28;20044;-55
2022/11/04 08:08:27;;;;;;;29.42;5.25;;;;;;;9.33;91.85;100137.28;5064220;28;20071;-52
2022/11/04 08:10:59;;;;;;;20.33;4.68;;;;;;;9.42;94.17;100127.50;5067507;28;20072;-54
2022/11/04 08:13:28;;;;;;;19.88;4.75;;;;;;;9.33;94.52;100139.91;5063484;28;20547;-53
2022/11/04 08:15:55;;;;;;;22.70;5.18;;;;;;;9.25;95.59;100144.34;5054890;28;20087;-54
2022/11/04 08:18:22;;;;;;;23.15;4.80;;;;;;;9.31;96.47;100141.06;5068872;28;20040;-53
2022/11/04 08:20:51;;;;;;;16.75;4.95;;;;;;;9.39;95.29;100141.09;5071106;28;20045;-54
2022/11/04 08:23:19;;;;;;;12.85;4.43;;;;;;;9.56;95.83;100128.72;5067971;28;20064;-55
2022/11/04 08:25:46;;;;;;;13.80;4.82;;;;;;;9.56;96.87;100134.84;5063378;28;20502;-54
2022/11/04 08:28:16;;;;;;;12.93;4.43;;;;;;;9.46;97.36;100120.06;5052905;28;20051;-55
2022/11/04 08:31:01;;;;;;;17.70;4.55;;;;;;;9.64;97.30;100133.19;5067121;28;20051;-55
2022/11/04 08:33:30;;;;;;;18.15;4.97;;;;;;;9.59;96.95;100126.56;5063040;28;20063;-54
2022/11/04 08:36:00;;;;;;;18.70;5.03;;;;;;;9.70;96.90;100129.91;5065439;28;20095;-54
2022/11/04 08:38:28;;;;;;;21.67;5.60;;;;;;;9.57;96.54;100127.75;5066863;28;20044;-63
2022/11/04 08:40:58;;;;;;;25.83;5.13;;;;;;;9.65;97.58;100125.09;4991847;28;20474;-63
2022/11/04 08:43:25;;;;;;;15.67;4.00;;;;;;;9.61;97.27;100124.59;5071227;28;20518;-64
2022/11/04 08:45:53;;;;;;;16.95;4.38;;;;;;;9.75;97.96;100138.16;5052300;28;20048;-63
2022/11/04 08:48:20;;;;;;;22.08;4.75;;;;;;;9.80;97.53;100141.16;5035155;28;20048;-63
2022/11/04 08:50:49;;;;;;;17.55;4.88;;;;;;;9.81;97.64;100137.53;5035818;28;20056;-63
2022/11/04 08:53:17;;;;;;;18.52;4.53;;;;;;;9.77;96.90;100141.50;5064542;28;20124;-63
2022/11/04 08:55:44;;;;;;;16.70;4.65;;;;;;;9.72;97.43;100138.53;5053378;28;20143;-63
2022/11/04 08:58:11;;;;;;;18.13;4.75;;;;;;;9.74;97.46;100129.41;5067728;28;20045;-63
2022/11/04 09:00:38;;;;;;;20.58;4.97;;;;;;;9.82;97.50;100135.72;5069952;28;20197;-63
2022/11/04 09:03:05;;;;;;;22.15;5.53;;;;;;;9.78;97.24;100135.22;5089839;28;20070;-61
2022/11/04 09:05:32;;;;;;;19.98;4.60;;;;;;;9.96;97.27;100137.72;5081269;28;20040;-63
2022/11/04 09:08:00;;;;;;;14.57;5.43;;;;;;;9.92;97.33;100125.78;5092982;28;20459;-63
2022/11/04 09:10:27;;;;;;;18.95;4.82;;;;;;;10.10;96.86;100147.66;5087608;28;20075;-63
2022/11/04 09:12:54;;;;;;;21.38;4.45;;;;;;;10.15;97.05;100141.84;5093981;28;20044;-63
2022/11/04 09:15:21;;;;;;;14.85;4.72;;;;;;;10.20;97.01;100144.81;5084838;28;20047;-63
2022/11/04 09:17:47;;;;;;;21.48;5.50;;;;;;;10.35;97.31;100148.53;5086580;28;20044;-63
2022/11/04 09:20:14;;;;;;;22.08;5.78;;;;;;;10.55;97.28;100148.13;5087246;28;20051;-63
2022/11/04 09:22:41;;;;;;;14.45;4.55;;;;;;;10.54;95.46;100155.28;5091928;28;20032;-64
2022/11/04 09:25:11;;;;;;;20.40;5.53;;;;;;;10.60;95.27;100152.94;5090923;28;20135;-63
2022/11/04 09:27:37;;;;;;;18.65;5.22;;;;;;;10.51;95.53;100149.47;5082912;28;20493;-63
2022/11/04 09:30:05;;;;;;;20.85;5.38;;;;;;;10.61;94.31;100155.44;5074188;28;20041;-63
2022/11/04 09:32:31;;;;;;;18.80;5.32;;;;;;;10.67;92.16;100153.94;5087646;28;20222;-63
2022/11/04 09:34:58;;;;;;;19.52;5.25;;;;;;;11.01;92.31;100144.91;5094972;28;20040;-61
2022/11/04 09:37:25;;;;;;;18.65;4.93;;;;;;;11.20;92.03;100141.00;5069989;28;20047;-61
2022/11/04 09:39:52;;;;;;;14.52;4.65;;;;;;;11.46;91.68;100128.25;5000086;28;20044;-61
2022/11/04 09:42:47;;;;;;;22.60;5.22;;;;;;;11.37;89.57;100134.63;5072257;28;20120;-64
2022/11/04 09:45:17;;;;;;;17.52;4.43;;;;;;;11.43;87.73;100127.78;5092551;28;20052;-61
2022/11/04 09:47:51;;;;;;;21.63;4.57;;;;;;;11.40;87.83;100126.28;5082025;28;20047;-61
2022/11/04 09:50:25;;;;;;;23.45;4.50;;;;;;;11.33;89.14;100130.63;5091574;28;20032;-61
2022/11/04 09:53:16;;;;;;;17.98;4.60;;;;;;;11.21;89.67;100154.09;5083420;28;20036;-61
2022/11/04 09:55:53;;;;;;;19.85;5.10;;;;;;;11.08;88.97;100151.19;5093098;28;20052;-62
2022/11/04 09:58:20;;;;;;;14.63;4.28;;;;;;;11.31;90.70;100160.03;5088381;28;20291;-61
2022/11/04 10:00:58;;;;;;;21.02;5.50;;;;;;;11.40;91.40;100170.63;5090079;28;20391;-61
2022/11/04 10:03:52;;;;;;;17.10;5.05;;;;;;;11.63;90.81;100160.88;5089129;28;20032;-61
2022/11/04 10:06:40;;;;;;;17.73;4.65;;;;;;;11.40;86.96;100162.66;5085231;28;20040;-62
2022/11/04 10:09:25;;;;;;;16.17;4.20;;;;;;;11.49;86.45;100165.06;5089319;28;20044;-61
2022/11/04 10:12:21;;;;;;;15.80;5.15;;;;;;;11.64;86.83;100153.72;5087777;28;20040;-62
2022/11/04 10:15:28;;;;;;;13.20;3.97;;;;;;;11.79;88.27;100151.13;5093397;28;20044;-62
2022/11/04 10:18:49;;;;;;;16.30;4.82;;;;;;;11.73;88.08;100157.97;5092844;28;20043;-63
2022/11/04 10:21:41;;;;;;;16.00;5.20;;;;;;;11.92;86.70;100156.72;5066342;28;20044;-62
2022/11/04 10:24:36;;;;;;;18.83;4.50;;;;;;;12.24;86.97;100168.94;5089076;28;20051;-62
2022/11/04 10:27:11;;;;;;;16.90;5.25;;;;;;;12.47;81.95;100165.41;5074010;28;20105;-64
2022/11/04 10:29:49;;;;;;;14.18;4.63;;;;;;;12.39;83.23;100163.66;5091228;28;20496;-62
2022/11/04 10:32:26;;;;;;;18.17;4.22;;;;;;;12.57;84.29;100163.34;5089868;28;20064;-62
2022/11/04 10:35:01;;;;;;;21.25;4.50;;;;;;;12.57;82.03;100167.81;5091040;28;20059;-62
2022/11/04 10:37:29;;;;;;;20.20;4.28;;;;;;;12.65;83.33;100168.56;5087498;28;20040;-62
2022/11/04 10:40:14;;;;;;;22.85;4.53;;;;;;;12.53;81.18;100169.19;5052596;28;20048;-63
2022/11/04 10:42:41;;;;;;;13.55;4.13;;;;;;;12.79;80.83;100177.59;5075956;28;20032;-62
2022/11/04 10:45:11;;;;;;;16.27;4.70;;;;;;;12.93;80.23;100177.78;5074850;28;20036;-62
2022/11/04 10:48:01;;;;;;;24.75;5.43;;;;;;;12.75;78.56;100184.28;5074858;28;20410;-63
2022/11/04 10:50:40;;;;;;;24.40;5.40;;;;;;;12.87;80.48;100179.34;5088127;28;20119;-63
2022/11/04 10:53:13;;;;;;;24.88;5.43;;;;;;;12.99;82.64;100180.53;5087637;28;20094;-63
2022/11/04 10:56:05;;;;;;;17.90;5.28;;;;;;;12.97;80.97;100185.22;5089932;28;20498;-62
2022/11/04 10:58:42;;;;;;;16.10;4.43;;;;;;;13.14;79.69;100198.34;5086629;28;20083;-63
2022/11/04 11:01:31;;;;;;;18.40;4.63;;;;;;;12.74;78.03;100197.78;5071429;28;20136;-63
2022/11/04 11:03:59;;;;;;;15.52;4.60;;;;;;;12.78;78.77;100207.88;5033299;28;20087;-63
2022/11/04 11:06:31;;;;;;;18.25;4.95;;;;;;;12.77;79.49;100208.88;5063805;28;20037;-63
2022/11/04 11:09:13;;;;;;;16.60;4.85;;;;;;;13.03;80.35;100220.94;5054589;28;20041;-63
2022/11/04 11:11:44;;;;;;;20.92;5.03;;;;;;;12.82;79.73;100214.50;5067173;28;20119;-63
2022/11/04 11:14:17;;;;;;;16.63;4.45;;;;;;;13.13;80.01;100212.66;5053949;28;20091;-63
2022/11/04 11:16:44;;;;;;;18.73;4.90;;;;;;;13.30;81.08;100211.47;5067785;28;20047;-63
2022/11/04 11:19:23;;;;;;;14.85;5.30;;;;;;;13.39;79.63;100202.41;5071819;28;20040;-63
2022/11/04 11:21:53;;;;;;;22.42;4.25;;;;;;;13.20;77.92;100205.59;5048846;28;20048;-63
2022/11/04 11:24:25;;;;;;;16.75;4.30;;;;;;;14.34;75.18;100219.22;5066976;28;20102;-63
2022/11/04 11:26:56;;;;;;;15.75;4.15;;;;;;;14.69;73.04;100214.00;5054118;28;20097;-63
2022/11/04 11:29:26;;;;;;;19.42;4.22;;;;;;;14.57;71.51;100223.50;5048867;28;20054;-63
2022/11/04 11:31:55;;;;;;;18.73;3.92;;;;;;;14.10;71.73;100231.09;5071350;28;20068;-63
2022/11/04 11:34:30;;;;;;;14.80;3.78;;;;;;;13.69;72.70;100230.84;5049414;28;20072;-63
2022/11/04 11:37:01;;;;;;;13.95;3.92;;;;;;;13.25;75.21;100225.34;5071137;28;20119;-64
2022/11/04 11:39:29;;;;;;;15.50;4.05;;;;;;;13.29;77.36;100239.13;4936988;28;20609;-63
2022/11/04 11:42:10;;;;;;;24.23;4.60;;;;;;;13.12;75.22;100237.66;5070019;28;20656;-63
2022/11/04 11:44:43;;;;;;;16.92;4.05;;;;;;;13.42;77.24;100241.16;5067863;28;20044;-63
2022/11/04 11:47:20;;;;;;;13.85;4.07;;;;;;;13.51;76.39;100240.03;5070477;28;20091;-63
2022/11/04 11:50:04;;;;;;;20.83;4.80;;;;;;;13.58;76.57;100238.28;5034736;28;20514;-63
2022/11/04 11:52:33;;;;;;;16.70;4.22;;;;;;;13.58;77.64;100238.28;5067205;28;20071;-63
2022/11/04 11:55:10;;;;;;;20.20;4.53;;;;;;;13.40;77.72;100237.84;5053058;28;20052;-63
2022/11/04 11:57:48;;;;;;;18.58;4.30;;;;;;;13.12;75.44;100241.13;5057153;28;20598;-63
2022/11/04 12:00:48;;;;;;;21.60;4.00;;;;;;;13.06;77.05;100244.50;5067116;28;20383;-63
2022/11/04 12:03:29;;;;;;;20.67;4.25;;;;;;;12.67;76.74;100250.88;5086598;28;20123;-63
2022/11/04 12:06:36;;;;;;;21.92;4.13;;;;;;;12.52;78.90;100244.72;5090465;28;20063;-63
2022/11/04 12:09:48;;;;;;;18.58;4.22;;;;;;;12.19;82.91;100242.28;5060927;28;20079;-63
2022/11/04 12:12:21;;;;;;;;;;;;;;;11.93;83.72;100246.06;5089465;28;20036;-63
2022/11/04 12:17:59;;;;;;;21.27;4.90;;;;;;;11.43;89.23;100257.91;5104828;27;20490;-63
2022/11/04 12:20:57;;;;;;;16.10;4.30;;;;;;;11.31;90.57;100258.28;5106810;28;20493;-63
2022/11/04 12:23:49;;;;;;;19.33;4.65;;;;;;;11.28;91.45;100257.81;5079410;28;20052;-63
2022/11/04 12:26:40;;;;;;;19.52;5.95;;;;;;;11.34;92.26;100263.25;5104650;28;20081;-62
2022/11/04 12:29:31;;;;;;;22.05;5.32;;;;;;;11.48;92.41;100260.91;5104859;28;20036;-62
2022/11/04 12:32:38;;;;;;;32.20;5.57;;;;;;;11.65;93.72;100259.00;5108731;28;20427;-62